sensor_id;sensor_type;location;lat;lon;timestamp;temperature;humidity
37052;DHT22;22964;52.272;13.356;2022-07-24T00:00:16;19.60;50.60
37052;DHT22;22964;52.272;13.356;2022-07-24T00:02:42;19.50;50.60
37052;DHT22;22964;52.272;13.356;2022-07-24T00:05:09;19.50;50.60
37052;DHT22;22964;52.272;13.356;2022-07-24T00:07:35;19.50;50.70
37052;DHT22;22964;52.272;13.356;2022-07-24T00:10:04;19.40;50.70
37052;DHT22;22964;52.272;13.356;2022-07-24T00:12:30;19.40;50.90
37052;DHT22;22964;52.272;13.356;2022-07-24T00:14:56;19.30;50.80
37052;DHT22;22964;52.272;13.356;2022-07-24T00:17:22;19.30;50.90
37052;DHT22;22964;52.272;13.356;2022-07-24T00:19:48;19.30;51.00
37052;DHT22;22964;52.272;13.356;2022-07-24T00:22:13;19.20;51.10
37052;DHT22;22964;52.272;13.356;2022-07-24T00:24:39;19.20;51.10
37052;DHT22;22964;52.272;13.356;2022-07-24T00:27:05;19.10;51.90
37052;DHT22;22964;52.272;13.356;2022-07-24T00:29:31;19.00;51.90
37052;DHT22;22964;52.272;13.356;2022-07-24T00:31:57;19.00;51.40
37052;DHT22;22964;52.272;13.356;2022-07-24T00:34:22;19.00;51.50
37052;DHT22;22964;52.272;13.356;2022-07-24T00:36:48;18.90;51.40
37052;DHT22;22964;52.272;13.356;2022-07-24T00:39:14;18.90;51.60
37052;DHT22;22964;52.272;13.356;2022-07-24T00:41:40;18.80;51.70
37052;DHT22;22964;52.272;13.356;2022-07-24T00:44:10;18.80;51.90
37052;DHT22;22964;52.272;13.356;2022-07-24T00:46:38;18.80;52.20
37052;DHT22;22964;52.272;13.356;2022-07-24T00:49:05;18.70;52.00
37052;DHT22;22964;52.272;13.356;2022-07-24T00:51:33;18.70;52.10
37052;DHT22;22964;52.272;13.356;2022-07-24T00:53:59;18.70;52.10
37052;DHT22;22964;52.272;13.356;2022-07-24T00:56:25;18.60;52.30
37052;DHT22;22964;52.272;13.356;2022-07-24T00:58:51;18.60;52.30
37052;DHT22;22964;52.272;13.356;2022-07-24T01:01:17;18.60;52.30
37052;DHT22;22964;52.272;13.356;2022-07-24T01:03:44;18.50;52.50
37052;DHT22;22964;52.272;13.356;2022-07-24T01:06:10;18.50;52.50
37052;DHT22;22964;52.272;13.356;2022-07-24T01:08:36;18.50;52.60
37052;DHT22;22964;52.272;13.356;2022-07-24T01:11:03;18.40;52.70
37052;DHT22;22964;52.272;13.356;2022-07-24T01:13:29;18.50;52.80
37052;DHT22;22964;52.272;13.356;2022-07-24T01:15:56;18.40;52.90
37052;DHT22;22964;52.272;13.356;2022-07-24T01:18:22;18.40;52.90
37052;DHT22;22964;52.272;13.356;2022-07-24T01:20:48;18.40;52.90
37052;DHT22;22964;52.272;13.356;2022-07-24T01:23:14;18.30;53.00
37052;DHT22;22964;52.272;13.356;2022-07-24T01:25:40;18.40;53.20
37052;DHT22;22964;52.272;13.356;2022-07-24T01:28:06;18.30;53.30
37052;DHT22;22964;52.272;13.356;2022-07-24T01:30:32;18.30;53.40
37052;DHT22;22964;52.272;13.356;2022-07-24T01:32:58;18.30;53.60
37052;DHT22;22964;52.272;13.356;2022-07-24T01:35:24;18.20;53.70
37052;DHT22;22964;52.272;13.356;2022-07-24T01:37:52;18.20;53.70
37052;DHT22;22964;52.272;13.356;2022-07-24T01:40:18;18.20;53.80
37052;DHT22;22964;52.272;13.356;2022-07-24T01:42:44;18.20;53.70
37052;DHT22;22964;52.272;13.356;2022-07-24T01:45:10;18.20;53.70
37052;DHT22;22964;52.272;13.356;2022-07-24T01:47:36;18.10;53.60
37052;DHT22;22964;52.272;13.356;2022-07-24T01:50:02;18.10;53.60
37052;DHT22;22964;52.272;13.356;2022-07-24T01:52:28;18.00;53.70
37052;DHT22;22964;52.272;13.356;2022-07-24T01:54:54;18.00;53.80
37052;DHT22;22964;52.272;13.356;2022-07-24T01:57:19;18.00;53.90
37052;DHT22;22964;52.272;13.356;2022-07-24T01:59:45;18.00;54.00
37052;DHT22;22964;52.272;13.356;2022-07-24T02:02:12;18.00;54.20
37052;DHT22;22964;52.272;13.356;2022-07-24T02:04:37;17.90;54.20
37052;DHT22;22964;52.272;13.356;2022-07-24T02:07:03;17.90;54.30
37052;DHT22;22964;52.272;13.356;2022-07-24T02:09:29;17.90;54.40
37052;DHT22;22964;52.272;13.356;2022-07-24T02:11:55;17.90;54.50
37052;DHT22;22964;52.272;13.356;2022-07-24T02:14:21;17.80;54.50
37052;DHT22;22964;52.272;13.356;2022-07-24T02:16:47;17.80;54.60
37052;DHT22;22964;52.272;13.356;2022-07-24T02:19:13;17.80;54.60
37052;DHT22;22964;52.272;13.356;2022-07-24T02:21:39;17.80;54.60
37052;DHT22;22964;52.272;13.356;2022-07-24T02:24:05;17.70;54.70
37052;DHT22;22964;52.272;13.356;2022-07-24T02:26:30;17.70;54.70
37052;DHT22;22964;52.272;13.356;2022-07-24T02:28:56;17.70;54.80
37052;DHT22;22964;52.272;13.356;2022-07-24T02:31:22;17.60;54.90
37052;DHT22;22964;52.272;13.356;2022-07-24T02:33:48;17.60;55.00
37052;DHT22;22964;52.272;13.356;2022-07-24T02:36:14;17.60;55.10
37052;DHT22;22964;52.272;13.356;2022-07-24T02:38:40;17.60;55.20
37052;DHT22;22964;52.272;13.356;2022-07-24T02:41:05;17.50;55.20
37052;DHT22;22964;52.272;13.356;2022-07-24T02:43:31;17.50;55.30
37052;DHT22;22964;52.272;13.356;2022-07-24T02:45:57;17.50;55.50
37052;DHT22;22964;52.272;13.356;2022-07-24T02:48:23;17.50;55.60
37052;DHT22;22964;52.272;13.356;2022-07-24T02:50:50;17.40;55.60
37052;DHT22;22964;52.272;13.356;2022-07-24T02:53:16;17.40;55.60
37052;DHT22;22964;52.272;13.356;2022-07-24T02:55:42;17.40;55.60
37052;DHT22;22964;52.272;13.356;2022-07-24T02:58:08;17.40;55.70
37052;DHT22;22964;52.272;13.356;2022-07-24T03:00:34;17.30;55.80
37052;DHT22;22964;52.272;13.356;2022-07-24T03:03:00;17.40;55.90
37052;DHT22;22964;52.272;13.356;2022-07-24T03:05:27;17.30;55.90
37052;DHT22;22964;52.272;13.356;2022-07-24T03:07:52;17.30;56.00
37052;DHT22;22964;52.272;13.356;2022-07-24T03:10:18;17.30;56.10
37052;DHT22;22964;52.272;13.356;2022-07-24T03:12:44;17.20;56.10
37052;DHT22;22964;52.272;13.356;2022-07-24T03:15:11;17.20;56.30
37052;DHT22;22964;52.272;13.356;2022-07-24T03:17:37;17.20;56.40
37052;DHT22;22964;52.272;13.356;2022-07-24T03:20:04;17.20;56.60
37052;DHT22;22964;52.272;13.356;2022-07-24T03:22:30;17.10;56.80
37052;DHT22;22964;52.272;13.356;2022-07-24T03:24:55;17.10;56.80
37052;DHT22;22964;52.272;13.356;2022-07-24T03:27:21;17.10;56.90
37052;DHT22;22964;52.272;13.356;2022-07-24T03:29:47;17.10;57.10
37052;DHT22;22964;52.272;13.356;2022-07-24T03:32:13;17.00;57.10
37052;DHT22;22964;52.272;13.356;2022-07-24T03:34:38;17.00;57.30
37052;DHT22;22964;52.272;13.356;2022-07-24T03:37:04;17.00;57.40
37052;DHT22;22964;52.272;13.356;2022-07-24T03:39:30;17.00;57.60
37052;DHT22;22964;52.272;13.356;2022-07-24T03:41:56;16.90;57.60
37052;DHT22;22964;52.272;13.356;2022-07-24T03:44:21;16.90;57.80
37052;DHT22;22964;52.272;13.356;2022-07-24T03:46:47;16.90;57.90
37052;DHT22;22964;52.272;13.356;2022-07-24T03:49:13;16.90;58.00
37052;DHT22;22964;52.272;13.356;2022-07-24T03:51:38;16.90;58.10
37052;DHT22;22964;52.272;13.356;2022-07-24T03:54:04;16.90;58.10
37052;DHT22;22964;52.272;13.356;2022-07-24T03:56:30;16.90;58.30
37052;DHT22;22964;52.272;13.356;2022-07-24T03:58:56;16.90;58.30
37052;DHT22;22964;52.272;13.356;2022-07-24T04:01:22;16.90;58.40
37052;DHT22;22964;52.272;13.356;2022-07-24T04:03:48;17.00;58.50
37052;DHT22;22964;52.272;13.356;2022-07-24T04:06:14;17.00;58.60
37052;DHT22;22964;52.272;13.356;2022-07-24T04:08:39;17.00;58.60
37052;DHT22;22964;52.272;13.356;2022-07-24T04:11:05;17.00;58.60
37052;DHT22;22964;52.272;13.356;2022-07-24T04:13:33;17.00;58.80
37052;DHT22;22964;52.272;13.356;2022-07-24T04:15:59;17.00;58.80
37052;DHT22;22964;52.272;13.356;2022-07-24T04:18:25;17.00;58.90
37052;DHT22;22964;52.272;13.356;2022-07-24T04:20:52;17.00;58.90
37052;DHT22;22964;52.272;13.356;2022-07-24T04:23:17;17.10;59.10
37052;DHT22;22964;52.272;13.356;2022-07-24T04:25:43;17.10;59.10
37052;DHT22;22964;52.272;13.356;2022-07-24T04:28:09;17.10;59.10
37052;DHT22;22964;52.272;13.356;2022-07-24T04:30:34;17.20;59.30
37052;DHT22;22964;52.272;13.356;2022-07-24T04:33:00;17.20;59.40
37052;DHT22;22964;52.272;13.356;2022-07-24T04:35:26;17.20;59.40
37052;DHT22;22964;52.272;13.356;2022-07-24T04:37:52;17.30;59.50
37052;DHT22;22964;52.272;13.356;2022-07-24T04:40:18;17.30;59.60
37052;DHT22;22964;52.272;13.356;2022-07-24T04:42:43;17.40;59.70
37052;DHT22;22964;52.272;13.356;2022-07-24T04:45:09;17.40;59.70
37052;DHT22;22964;52.272;13.356;2022-07-24T04:47:36;17.50;59.80
37052;DHT22;22964;52.272;13.356;2022-07-24T04:50:04;17.50;59.90
37052;DHT22;22964;52.272;13.356;2022-07-24T04:52:30;17.50;60.00
37052;DHT22;22964;52.272;13.356;2022-07-24T04:54:56;17.60;59.90
37052;DHT22;22964;52.272;13.356;2022-07-24T04:57:21;17.70;60.00
37052;DHT22;22964;52.272;13.356;2022-07-24T04:59:47;17.70;60.00
37052;DHT22;22964;52.272;13.356;2022-07-24T05:02:13;17.80;60.10
37052;DHT22;22964;52.272;13.356;2022-07-24T05:04:39;17.90;60.30
37052;DHT22;22964;52.272;13.356;2022-07-24T05:07:04;17.90;60.10
37052;DHT22;22964;52.272;13.356;2022-07-24T05:09:30;18.00;60.10
37052;DHT22;22964;52.272;13.356;2022-07-24T05:11:56;18.10;60.10
37052;DHT22;22964;52.272;13.356;2022-07-24T05:14:22;18.20;60.00
37052;DHT22;22964;52.272;13.356;2022-07-24T05:16:48;18.30;60.00
37052;DHT22;22964;52.272;13.356;2022-07-24T05:19:13;18.40;60.00
37052;DHT22;22964;52.272;13.356;2022-07-24T05:21:39;18.40;59.90
37052;DHT22;22964;52.272;13.356;2022-07-24T05:24:05;18.50;59.80
37052;DHT22;22964;52.272;13.356;2022-07-24T05:26:31;18.60;59.70
37052;DHT22;22964;52.272;13.356;2022-07-24T05:28:58;18.70;59.60
37052;DHT22;22964;52.272;13.356;2022-07-24T05:31:24;18.80;59.60
37052;DHT22;22964;52.272;13.356;2022-07-24T05:33:50;18.90;59.50
37052;DHT22;22964;52.272;13.356;2022-07-24T05:36:16;19.00;59.40
37052;DHT22;22964;52.272;13.356;2022-07-24T05:38:42;19.10;59.30
37052;DHT22;22964;52.272;13.356;2022-07-24T05:41:10;19.20;59.30
37052;DHT22;22964;52.272;13.356;2022-07-24T05:43:35;19.30;59.20
37052;DHT22;22964;52.272;13.356;2022-07-24T05:46:01;19.40;59.10
37052;DHT22;22964;52.272;13.356;2022-07-24T05:48:27;19.50;59.00
37052;DHT22;22964;52.272;13.356;2022-07-24T05:50:52;19.60;58.90
37052;DHT22;22964;52.272;13.356;2022-07-24T05:53:18;19.80;58.80
37052;DHT22;22964;52.272;13.356;2022-07-24T05:55:44;19.90;58.60
37052;DHT22;22964;52.272;13.356;2022-07-24T05:58:09;20.00;58.40
37052;DHT22;22964;52.272;13.356;2022-07-24T06:00:35;20.10;58.20
37052;DHT22;22964;52.272;13.356;2022-07-24T06:03:01;20.20;58.00
37052;DHT22;22964;52.272;13.356;2022-07-24T06:05:26;20.30;57.80
37052;DHT22;22964;52.272;13.356;2022-07-24T06:07:52;20.40;57.60
37052;DHT22;22964;52.272;13.356;2022-07-24T06:10:18;20.50;57.50
37052;DHT22;22964;52.272;13.356;2022-07-24T06:12:43;20.70;57.50
37052;DHT22;22964;52.272;13.356;2022-07-24T06:15:10;20.80;57.30
37052;DHT22;22964;52.272;13.356;2022-07-24T06:17:36;20.90;57.10
37052;DHT22;22964;52.272;13.356;2022-07-24T06:20:01;21.00;56.90
37052;DHT22;22964;52.272;13.356;2022-07-24T06:22:27;21.10;56.80
37052;DHT22;22964;52.272;13.356;2022-07-24T06:24:53;21.30;56.70
37052;DHT22;22964;52.272;13.356;2022-07-24T06:27:20;21.30;56.60
37052;DHT22;22964;52.272;13.356;2022-07-24T06:29:46;21.50;56.40
37052;DHT22;22964;52.272;13.356;2022-07-24T06:32:11;21.60;56.20
37052;DHT22;22964;52.272;13.356;2022-07-24T06:34:37;21.80;56.20
37052;DHT22;22964;52.272;13.356;2022-07-24T06:37:03;21.90;56.10
37052;DHT22;22964;52.272;13.356;2022-07-24T06:39:28;22.10;55.70
37052;DHT22;22964;52.272;13.356;2022-07-24T06:41:54;22.30;55.20
37052;DHT22;22964;52.272;13.356;2022-07-24T06:44:28;22.50;54.80
37052;DHT22;22964;52.272;13.356;2022-07-24T06:46:53;22.60;54.40
37052;DHT22;22964;52.272;13.356;2022-07-24T06:49:19;22.80;54.40
37052;DHT22;22964;52.272;13.356;2022-07-24T06:51:45;23.00;54.00
37052;DHT22;22964;52.272;13.356;2022-07-24T06:54:13;23.10;53.50
37052;DHT22;22964;52.272;13.356;2022-07-24T06:56:39;23.30;53.00
37052;DHT22;22964;52.272;13.356;2022-07-24T06:59:04;23.40;53.40
37052;DHT22;22964;52.272;13.356;2022-07-24T07:01:30;23.60;52.60
37052;DHT22;22964;52.272;13.356;2022-07-24T07:03:56;23.70;52.40
37052;DHT22;22964;52.272;13.356;2022-07-24T07:06:21;23.80;51.90
37052;DHT22;22964;52.272;13.356;2022-07-24T07:08:47;24.00;51.60
37052;DHT22;22964;52.272;13.356;2022-07-24T07:11:13;24.10;51.50
37052;DHT22;22964;52.272;13.356;2022-07-24T07:13:39;24.20;51.00
37052;DHT22;22964;52.272;13.356;2022-07-24T07:16:05;24.30;50.80
37052;DHT22;22964;52.272;13.356;2022-07-24T07:18:30;24.40;50.40
37052;DHT22;22964;52.272;13.356;2022-07-24T07:20:56;24.50;50.00
37052;DHT22;22964;52.272;13.356;2022-07-24T07:23:23;24.60;50.50
37052;DHT22;22964;52.272;13.356;2022-07-24T07:25:49;24.70;49.60
37052;DHT22;22964;52.272;13.356;2022-07-24T07:28:16;24.80;49.40
37052;DHT22;22964;52.272;13.356;2022-07-24T07:30:41;24.80;49.00
37052;DHT22;22964;52.272;13.356;2022-07-24T07:33:07;24.90;49.10
37052;DHT22;22964;52.272;13.356;2022-07-24T07:35:33;25.00;49.10
37052;DHT22;22964;52.272;13.356;2022-07-24T07:37:58;25.10;49.10
37052;DHT22;22964;52.272;13.356;2022-07-24T07:40:25;25.20;48.80
37052;DHT22;22964;52.272;13.356;2022-07-24T07:42:51;25.30;48.60
37052;DHT22;22964;52.272;13.356;2022-07-24T07:45:17;25.40;48.50
37052;DHT22;22964;52.272;13.356;2022-07-24T07:47:43;25.50;48.20
37052;DHT22;22964;52.272;13.356;2022-07-24T07:50:09;25.60;48.20
37052;DHT22;22964;52.272;13.356;2022-07-24T07:52:35;25.70;48.30
37052;DHT22;22964;52.272;13.356;2022-07-24T07:55:01;25.80;48.30
37052;DHT22;22964;52.272;13.356;2022-07-24T07:57:27;26.00;47.90
37052;DHT22;22964;52.272;13.356;2022-07-24T07:59:53;26.10;47.30
37052;DHT22;22964;52.272;13.356;2022-07-24T08:02:19;26.20;47.30
37052;DHT22;22964;52.272;13.356;2022-07-24T08:04:44;26.30;47.30
37052;DHT22;22964;52.272;13.356;2022-07-24T08:07:10;26.40;47.20
37052;DHT22;22964;52.272;13.356;2022-07-24T08:09:36;26.60;46.80
37052;DHT22;22964;52.272;13.356;2022-07-24T08:12:04;26.70;46.60
37052;DHT22;22964;52.272;13.356;2022-07-24T08:14:30;26.80;46.20
37052;DHT22;22964;52.272;13.356;2022-07-24T08:16:56;26.90;46.20
37052;DHT22;22964;52.272;13.356;2022-07-24T08:19:21;27.00;46.10
37052;DHT22;22964;52.272;13.356;2022-07-24T08:21:47;27.10;45.70
37052;DHT22;22964;52.272;13.356;2022-07-24T08:24:13;27.30;45.80
37052;DHT22;22964;52.272;13.356;2022-07-24T08:26:39;27.40;45.80
37052;DHT22;22964;52.272;13.356;2022-07-24T08:29:04;27.50;45.60
37052;DHT22;22964;52.272;13.356;2022-07-24T08:31:31;27.60;44.40
37052;DHT22;22964;52.272;13.356;2022-07-24T08:33:56;27.80;44.30
37052;DHT22;22964;52.272;13.356;2022-07-24T08:36:22;27.90;44.10
37052;DHT22;22964;52.272;13.356;2022-07-24T08:38:48;28.00;43.80
37052;DHT22;22964;52.272;13.356;2022-07-24T08:41:14;28.10;44.40
37052;DHT22;22964;52.272;13.356;2022-07-24T08:43:40;28.20;43.40
37052;DHT22;22964;52.272;13.356;2022-07-24T08:46:09;28.30;43.00
37052;DHT22;22964;52.272;13.356;2022-07-24T08:48:39;28.30;42.50
37052;DHT22;22964;52.272;13.356;2022-07-24T08:51:07;28.40;42.80
37052;DHT22;22964;52.272;13.356;2022-07-24T08:53:33;28.50;42.80
37052;DHT22;22964;52.272;13.356;2022-07-24T08:55:59;28.50;42.90
37052;DHT22;22964;52.272;13.356;2022-07-24T08:58:24;28.60;42.80
37052;DHT22;22964;52.272;13.356;2022-07-24T09:00:50;28.70;42.80
37052;DHT22;22964;52.272;13.356;2022-07-24T09:03:16;28.80;42.40
37052;DHT22;22964;52.272;13.356;2022-07-24T09:05:56;28.90;42.00
37052;DHT22;22964;52.272;13.356;2022-07-24T09:08:21;29.00;40.90
37052;DHT22;22964;52.272;13.356;2022-07-24T09:10:59;29.10;42.00
37052;DHT22;22964;52.272;13.356;2022-07-24T09:13:27;29.20;41.20
37052;DHT22;22964;52.272;13.356;2022-07-24T09:15:55;29.30;41.40
37052;DHT22;22964;52.272;13.356;2022-07-24T09:18:32;29.50;41.50
37052;DHT22;22964;52.272;13.356;2022-07-24T09:21:11;29.50;40.50
37052;DHT22;22964;52.272;13.356;2022-07-24T09:23:38;29.70;41.30
37052;DHT22;22964;52.272;13.356;2022-07-24T09:26:03;29.90;40.80
37052;DHT22;22964;52.272;13.356;2022-07-24T09:28:29;30.00;40.50
37052;DHT22;22964;52.272;13.356;2022-07-24T09:31:00;30.10;40.00
37052;DHT22;22964;52.272;13.356;2022-07-24T09:33:35;30.30;39.20
37052;DHT22;22964;52.272;13.356;2022-07-24T09:36:11;30.30;38.20
37052;DHT22;22964;52.272;13.356;2022-07-24T09:38:38;30.40;38.10
37052;DHT22;22964;52.272;13.356;2022-07-24T09:41:04;30.50;39.00
37052;DHT22;22964;52.272;13.356;2022-07-24T09:43:31;30.50;38.90
37052;DHT22;22964;52.272;13.356;2022-07-24T09:46:10;30.60;38.70
37052;DHT22;22964;52.272;13.356;2022-07-24T09:48:55;30.70;37.60
37052;DHT22;22964;52.272;13.356;2022-07-24T09:51:24;30.70;37.30
37052;DHT22;22964;52.272;13.356;2022-07-24T09:53:59;30.90;38.40
37052;DHT22;22964;52.272;13.356;2022-07-24T09:56:26;31.00;37.40
37052;DHT22;22964;52.272;13.356;2022-07-24T09:58:54;31.00;38.00
37052;DHT22;22964;52.272;13.356;2022-07-24T10:01:25;31.20;38.30
37052;DHT22;22964;52.272;13.356;2022-07-24T10:03:53;31.20;37.00
37052;DHT22;22964;52.272;13.356;2022-07-24T10:06:25;31.30;37.40
37052;DHT22;22964;52.272;13.356;2022-07-24T10:08:52;31.30;37.10
37052;DHT22;22964;52.272;13.356;2022-07-24T10:11:18;31.40;37.00
37052;DHT22;22964;52.272;13.356;2022-07-24T10:13:45;31.50;37.00
37052;DHT22;22964;52.272;13.356;2022-07-24T10:19:02;31.60;35.90
37052;DHT22;22964;52.272;13.356;2022-07-24T10:21:36;31.70;35.10
37052;DHT22;22964;52.272;13.356;2022-07-24T10:24:12;31.80;35.10
37052;DHT22;22964;52.272;13.356;2022-07-24T10:26:47;31.90;35.00
37052;DHT22;22964;52.272;13.356;2022-07-24T10:29:24;31.90;35.70
37052;DHT22;22964;52.272;13.356;2022-07-24T10:31:55;32.00;35.60
37052;DHT22;22964;52.272;13.356;2022-07-24T10:37:13;32.20;35.20
37052;DHT22;22964;52.272;13.356;2022-07-24T10:39:50;32.30;35.10
37052;DHT22;22964;52.272;13.356;2022-07-24T10:42:18;32.40;35.70
37052;DHT22;22964;52.272;13.356;2022-07-24T10:44:44;32.50;35.90
37052;DHT22;22964;52.272;13.356;2022-07-24T10:47:12;32.70;34.90
37052;DHT22;22964;52.272;13.356;2022-07-24T10:49:46;32.70;34.40
37052;DHT22;22964;52.272;13.356;2022-07-24T10:52:29;32.80;34.30
37052;DHT22;22964;52.272;13.356;2022-07-24T10:55:30;32.90;32.90
37052;DHT22;22964;52.272;13.356;2022-07-24T10:57:59;32.90;33.40
37052;DHT22;22964;52.272;13.356;2022-07-24T11:02:57;33.10;32.50
37052;DHT22;22964;52.272;13.356;2022-07-24T11:05:29;33.20;32.90
37052;DHT22;22964;52.272;13.356;2022-07-24T11:21:27;33.50;32.90
37052;DHT22;22964;52.272;13.356;2022-07-24T11:27:14;33.70;31.70
37052;DHT22;22964;52.272;13.356;2022-07-24T11:29:41;33.70;32.30
37052;DHT22;22964;52.272;13.356;2022-07-24T11:32:09;33.80;32.20
37052;DHT22;22964;52.272;13.356;2022-07-24T11:34:37;33.90;31.80
37052;DHT22;22964;52.272;13.356;2022-07-24T11:37:04;33.90;31.60
37052;DHT22;22964;52.272;13.356;2022-07-24T11:39:35;34.00;31.70
37052;DHT22;22964;52.272;13.356;2022-07-24T11:42:07;34.00;31.60
37052;DHT22;22964;52.272;13.356;2022-07-24T11:44:40;34.00;30.80
37052;DHT22;22964;52.272;13.356;2022-07-24T11:47:09;34.10;33.80
37052;DHT22;22964;52.272;13.356;2022-07-24T11:52:15;34.30;30.30
37052;DHT22;22964;52.272;13.356;2022-07-24T11:54:41;34.40;30.00
37052;DHT22;22964;52.272;13.356;2022-07-24T11:57:22;34.50;30.60
37052;DHT22;22964;52.272;13.356;2022-07-24T11:59:50;34.50;29.70
37052;DHT22;22964;52.272;13.356;2022-07-24T12:02:16;34.50;30.30
37052;DHT22;22964;52.272;13.356;2022-07-24T12:04:43;34.60;30.10
37052;DHT22;22964;52.272;13.356;2022-07-24T12:07:15;34.60;29.90
37052;DHT22;22964;52.272;13.356;2022-07-24T12:09:59;34.70;29.90
37052;DHT22;22964;52.272;13.356;2022-07-24T12:12:36;34.70;29.30
37052;DHT22;22964;52.272;13.356;2022-07-24T12:15:07;34.80;29.30
37052;DHT22;22964;52.272;13.356;2022-07-24T12:17:54;34.90;29.40
37052;DHT22;22964;52.272;13.356;2022-07-24T12:20:36;35.00;29.30
37052;DHT22;22964;52.272;13.356;2022-07-24T12:23:10;35.10;29.10
37052;DHT22;22964;52.272;13.356;2022-07-24T12:25:37;35.20;29.30
37052;DHT22;22964;52.272;13.356;2022-07-24T12:28:07;35.40;29.30
37052;DHT22;22964;52.272;13.356;2022-07-24T12:30:38;35.50;29.20
37052;DHT22;22964;52.272;13.356;2022-07-24T12:35:51;35.70;28.20
37052;DHT22;22964;52.272;13.356;2022-07-24T12:38:30;35.80;28.30
37052;DHT22;22964;52.272;13.356;2022-07-24T12:41:10;35.80;27.20
37052;DHT22;22964;52.272;13.356;2022-07-24T12:46:30;35.90;27.20
37052;DHT22;22964;52.272;13.356;2022-07-24T12:51:51;36.00;27.10
37052;DHT22;22964;52.272;13.356;2022-07-24T12:54:36;36.00;26.90
37052;DHT22;22964;52.272;13.356;2022-07-24T12:57:08;36.20;27.20
37052;DHT22;22964;52.272;13.356;2022-07-24T12:59:36;36.20;26.90
37052;DHT22;22964;52.272;13.356;2022-07-24T13:04:31;36.30;26.80
37052;DHT22;22964;52.272;13.356;2022-07-24T13:06:59;36.40;26.90
37052;DHT22;22964;52.272;13.356;2022-07-24T13:09:26;36.40;26.80
37052;DHT22;22964;52.272;13.356;2022-07-24T13:11:54;36.40;27.30
37052;DHT22;22964;52.272;13.356;2022-07-24T13:14:22;36.30;26.50
37052;DHT22;22964;52.272;13.356;2022-07-24T13:16:50;36.30;26.30
37052;DHT22;22964;52.272;13.356;2022-07-24T13:19:17;36.20;26.20
37052;DHT22;22964;52.272;13.356;2022-07-24T13:21:43;36.20;26.20
37052;DHT22;22964;52.272;13.356;2022-07-24T13:24:11;36.10;26.30
37052;DHT22;22964;52.272;13.356;2022-07-24T13:26:38;36.10;26.30
37052;DHT22;22964;52.272;13.356;2022-07-24T13:29:05;36.20;26.50
37052;DHT22;22964;52.272;13.356;2022-07-24T13:31:31;36.20;26.40
37052;DHT22;22964;52.272;13.356;2022-07-24T13:33:57;36.20;26.00
37052;DHT22;22964;52.272;13.356;2022-07-24T13:36:23;36.20;26.00
37052;DHT22;22964;52.272;13.356;2022-07-24T13:38:49;36.30;26.20
37052;DHT22;22964;52.272;13.356;2022-07-24T13:41:15;36.30;25.80
37052;DHT22;22964;52.272;13.356;2022-07-24T13:43:47;36.30;26.60
37052;DHT22;22964;52.272;13.356;2022-07-24T13:46:14;36.30;25.90
37052;DHT22;22964;52.272;13.356;2022-07-24T13:48:40;36.30;26.00
37052;DHT22;22964;52.272;13.356;2022-07-24T13:51:06;36.30;26.10
37052;DHT22;22964;52.272;13.356;2022-07-24T13:53:31;36.30;26.00
37052;DHT22;22964;52.272;13.356;2022-07-24T13:55:57;36.40;25.80
37052;DHT22;22964;52.272;13.356;2022-07-24T13:58:23;36.40;25.80
37052;DHT22;22964;52.272;13.356;2022-07-24T14:00:48;36.40;25.80
37052;DHT22;22964;52.272;13.356;2022-07-24T14:03:14;36.40;25.60
37052;DHT22;22964;52.272;13.356;2022-07-24T14:05:41;36.40;25.50
37052;DHT22;22964;52.272;13.356;2022-07-24T14:08:07;36.40;25.40
37052;DHT22;22964;52.272;13.356;2022-07-24T14:10:33;36.40;25.80
37052;DHT22;22964;52.272;13.356;2022-07-24T14:12:59;36.40;25.70
37052;DHT22;22964;52.272;13.356;2022-07-24T14:15:25;36.50;25.80
37052;DHT22;22964;52.272;13.356;2022-07-24T14:17:52;36.60;25.70
37052;DHT22;22964;52.272;13.356;2022-07-24T14:20:18;36.70;25.30
37052;DHT22;22964;52.272;13.356;2022-07-24T14:22:44;36.80;25.10
37052;DHT22;22964;52.272;13.356;2022-07-24T14:25:09;36.80;25.20
37052;DHT22;22964;52.272;13.356;2022-07-24T14:27:35;36.80;25.10
37052;DHT22;22964;52.272;13.356;2022-07-24T14:30:02;36.80;25.00
37052;DHT22;22964;52.272;13.356;2022-07-24T14:32:29;36.90;24.80
37052;DHT22;22964;52.272;13.356;2022-07-24T14:34:54;36.90;24.70
37052;DHT22;22964;52.272;13.356;2022-07-24T14:37:20;37.00;24.70
37052;DHT22;22964;52.272;13.356;2022-07-24T14:39:46;37.00;24.60
37052;DHT22;22964;52.272;13.356;2022-07-24T14:42:12;37.00;24.50
37052;DHT22;22964;52.272;13.356;2022-07-24T14:44:37;37.00;24.40
37052;DHT22;22964;52.272;13.356;2022-07-24T14:47:03;37.00;24.40
37052;DHT22;22964;52.272;13.356;2022-07-24T14:49:32;37.00;24.60
37052;DHT22;22964;52.272;13.356;2022-07-24T14:51:58;37.00;24.50
37052;DHT22;22964;52.272;13.356;2022-07-24T14:54:24;37.00;24.20
37052;DHT22;22964;52.272;13.356;2022-07-24T14:56:50;37.00;24.20
37052;DHT22;22964;52.272;13.356;2022-07-24T14:59:16;37.10;24.10
37052;DHT22;22964;52.272;13.356;2022-07-24T15:01:42;37.10;24.20
37052;DHT22;22964;52.272;13.356;2022-07-24T15:04:07;37.20;24.10
37052;DHT22;22964;52.272;13.356;2022-07-24T15:06:33;37.20;24.30
37052;DHT22;22964;52.272;13.356;2022-07-24T15:08:59;37.20;24.30
37052;DHT22;22964;52.272;13.356;2022-07-24T15:11:25;37.30;24.30
37052;DHT22;22964;52.272;13.356;2022-07-24T15:13:51;37.40;24.10
37052;DHT22;22964;52.272;13.356;2022-07-24T15:16:18;37.50;24.10
37052;DHT22;22964;52.272;13.356;2022-07-24T15:18:44;37.50;23.80
37052;DHT22;22964;52.272;13.356;2022-07-24T15:21:09;37.70;23.80
37052;DHT22;22964;52.272;13.356;2022-07-24T15:23:35;37.70;23.70
37052;DHT22;22964;52.272;13.356;2022-07-24T15:26:01;37.70;23.50
37052;DHT22;22964;52.272;13.356;2022-07-24T15:28:27;37.80;23.70
37052;DHT22;22964;52.272;13.356;2022-07-24T15:30:53;37.80;23.50
37052;DHT22;22964;52.272;13.356;2022-07-24T15:33:19;37.80;23.60
37052;DHT22;22964;52.272;13.356;2022-07-24T15:35:44;37.80;24.00
37052;DHT22;22964;52.272;13.356;2022-07-24T15:38:10;37.90;23.50
37052;DHT22;22964;52.272;13.356;2022-07-24T15:40:39;37.90;23.30
37052;DHT22;22964;52.272;13.356;2022-07-24T15:43:05;37.90;23.20
37052;DHT22;22964;52.272;13.356;2022-07-24T15:45:31;37.90;23.30
37052;DHT22;22964;52.272;13.356;2022-07-24T15:47:56;37.90;23.30
37052;DHT22;22964;52.272;13.356;2022-07-24T15:50:22;37.90;23.20
37052;DHT22;22964;52.272;13.356;2022-07-24T15:52:48;37.90;23.40